Fire Weather Observation
Issued by NWS Grand Junction, CO

Home | Current Version | Previous Version | Text Only | Print | Product List | Glossary Off
Versions: 1 2 3 4 5 6 7 8 9 10 11 12 13 14 15 16 17 18 19 20 21 22 23 24 25 26 27 28 29 30 31 32 33 34 35 36 37 38 39 40 41 42 43 44 45 46 47 48 49 50

000
SHUS65 KGJT 172018
FWOGJT

DAILY FIRE WEATHER OBSERVATION
NATIONAL WEATHER SERVICE GRAND JUNCTION CO
212 PM MDT FRI APR 17 2015

STATE OF THE WEATHER (W)               7
DRY BULB TEMPERATURE                   31   DEGREES FAHRENHEIT
RELATIVE HUMIDITY (RH)                 100  PERCENT
LIGHTNING ACTIVITY LEVEL
  (LAL - MIDNIGHT TO 2 PM)             1
WIND DIRECTION                         135  DEGREES (C IF CALM)
WIND SPEED                             6    MPH
MAX TEMP (2 PM - 2 PM)                 44   DEGREES FAHRENHEIT
MIN TEMP (2 PM - 2 PM)                 30   DEGREES FAHRENHEIT
MAX RH (2 PM - 2 PM)                   100  PERCENT
MIN RH (2 PM - 2 PM)                   73   PERCENT
PCPN DURATION                          12.4 HOURS
PCPN AMT (2 PM - 2 PM)                 0.71 INCHES
LAL (2 PM - 2 PM)                      1

$$

METAR KGJT 171953Z 12005KT 1/2SM SN FZFG VV006 M01/M01 A3004 RMK
      AO2 SLP180 P0011 T10061006 RVRNO


USA.gov is the U.S. government's official web portal to all federal, state and local government web resources and services.